Time;durP1;ratioP1;P1;durP2;ratioP2;P2;SDS_P1;SDS_P2;PMS_P1;PMS_P2;Temp;Humidity;BMP_temperature;BMP_pressure;BME280_temperature;BME280_humidity;BME280_pressure;Samples;Min_cycle;Max_cycle;Signal;HPM_P1;HPM_P2
2023/02/10 00:00:03;;;;;;;102.80;36.70;;;;;;;-7.90;100.00;103125.13;106740;1285;58576;-76
2023/02/10 00:02:29;;;;;;;104.20;36.80;;;;;;;-7.85;100.00;103118.95;106788;1286;60086;-76
2023/02/10 00:04:54;;;;;;;113.70;38.30;;;;;;;-7.78;100.00;103113.20;106772;1285;58512;-76
2023/02/10 00:07:19;;;;;;;95.90;35.00;;;;;;;-7.72;100.00;103113.39;106782;1286;58243;-77
2023/02/10 00:09:46;;;;;;;98.50;37.30;;;;;;;-7.67;100.00;103111.23;106751;1286;58323;-76
2023/02/10 00:12:12;;;;;;;94.20;35.10;;;;;;;-7.63;100.00;103106.45;106786;1286;58202;-76
2023/02/10 00:14:37;;;;;;;91.40;33.20;;;;;;;-7.57;100.00;103103.91;106821;1286;59108;-76
2023/02/10 00:17:03;;;;;;;94.60;33.00;;;;;;;-7.51;100.00;103105.52;106788;1286;58230;-76
2023/02/10 00:19:30;;;;;;;90.00;33.60;;;;;;;-7.46;100.00;103099.32;106744;1286;58365;-77
2023/02/10 00:21:57;;;;;;;96.40;33.10;;;;;;;-7.41;100.00;103101.99;106724;1285;63100;-76
2023/02/10 00:24:23;;;;;;;96.40;33.50;;;;;;;-7.35;100.00;103095.41;106769;1286;58246;-77
2023/02/10 00:26:49;;;;;;;99.00;35.80;;;;;;;-7.29;100.00;103090.41;106804;1286;58593;-76
2023/02/10 00:29:15;;;;;;;102.50;33.90;;;;;;;-7.22;100.00;103096.17;106780;1285;58442;-77
2023/02/10 00:31:41;;;;;;;95.20;34.00;;;;;;;-7.18;100.00;103092.06;106794;1285;58663;-77
2023/02/10 00:34:10;;;;;;;92.40;32.20;;;;;;;-7.13;100.00;103089.70;106756;1286;58195;-76
2023/02/10 00:36:35;;;;;;;100.50;34.80;;;;;;;-7.09;100.00;103086.17;106794;1286;60212;-76
2023/02/10 00:39:01;;;;;;;93.40;33.40;;;;;;;-7.05;100.00;103083.38;106804;1286;58326;-76
2023/02/10 00:41:26;;;;;;;95.10;33.90;;;;;;;-7.01;100.00;103084.52;106813;1285;58223;-76
2023/02/10 00:43:52;;;;;;;95.90;33.90;;;;;;;-6.94;100.00;103087.45;106764;1286;58301;-77
2023/02/10 00:46:19;;;;;;;98.30;34.60;;;;;;;-6.87;100.00;103087.95;106800;1285;58526;-76
2023/02/10 00:48:44;;;;;;;91.50;33.20;;;;;;;-6.80;100.00;103083.76;106790;1286;73744;-76
2023/02/10 00:51:10;;;;;;;92.60;33.80;;;;;;;-6.77;100.00;103085.48;106410;1286;58864;-76
2023/02/10 00:53:36;;;;;;;93.50;31.90;;;;;;;-6.72;100.00;103085.39;106738;1285;58215;-76
2023/02/10 00:56:02;;;;;;;91.90;32.30;;;;;;;-6.66;100.00;103089.07;106803;1286;58283;-77
2023/02/10 00:58:28;;;;;;;93.00;33.30;;;;;;;-6.61;100.00;103082.87;106787;1286;58420;-76
2023/02/10 01:00:54;;;;;;;86.70;30.70;;;;;;;-6.57;100.00;103086.96;106755;1285;58280;-76
2023/02/10 01:03:20;;;;;;;84.30;30.70;;;;;;;-6.52;100.00;103081.31;106796;1285;58301;-76
2023/02/10 01:05:45;;;;;;;106.00;33.30;;;;;;;-6.50;100.00;103079.27;106737;1286;61719;-76
2023/02/10 01:08:12;;;;;;;93.20;34.60;;;;;;;-6.49;100.00;103077.27;106769;1286;58567;-76
2023/02/10 01:10:37;;;;;;;96.50;32.10;;;;;;;-6.47;100.00;103076.29;106765;1286;58483;-76
2023/02/10 01:13:05;;;;;;;91.50;33.60;;;;;;;-6.46;100.00;103071.31;106812;1286;58353;-76
2023/02/10 01:15:32;;;;;;;95.60;33.40;;;;;;;-6.44;100.00;103068.80;106736;1286;58323;-76
2023/02/10 01:17:57;;;;;;;91.20;32.30;;;;;;;-6.45;100.00;103064.48;106778;1286;58231;-76
2023/02/10 01:20:23;;;;;;;93.50;32.40;;;;;;;-6.46;100.00;103066.64;106756;1286;58191;-76
2023/02/10 01:22:49;;;;;;;90.60;32.70;;;;;;;-6.47;100.00;103065.98;106779;1285;58605;-77
2023/02/10 01:25:14;;;;;;;85.30;30.60;;;;;;;-6.49;100.00;103067.31;106813;1285;58219;-76
2023/02/10 01:27:40;;;;;;;93.80;31.10;;;;;;;-6.49;100.00;103068.55;106794;1285;58275;-77
2023/02/10 01:30:06;;;;;;;93.10;31.90;;;;;;;-6.50;100.00;103065.45;106781;1286;60117;-76
2023/02/10 01:32:31;;;;;;;90.00;32.20;;;;;;;-6.51;100.00;103059.21;106808;1286;58278;-76
2023/02/10 01:34:57;;;;;;;90.50;33.20;;;;;;;-6.51;100.00;103059.05;106762;1286;58345;-76
2023/02/10 01:37:22;;;;;;;89.30;31.50;;;;;;;-6.51;100.00;103060.43;106770;1286;58607;-76
2023/02/10 01:39:48;;;;;;;86.40;31.90;;;;;;;-6.53;100.00;103061.39;106823;1286;58577;-76
2023/02/10 01:42:15;;;;;;;87.00;33.90;;;;;;;-6.53;100.00;103061.60;106746;1285;74658;-76
2023/02/10 01:44:40;;;;;;;93.70;34.40;;;;;;;-6.53;100.00;103064.22;106796;1286;74293;-76
2023/02/10 01:47:06;;;;;;;90.30;31.60;;;;;;;-6.55;100.00;103062.40;106758;1286;58208;-76
2023/02/10 01:49:52;;;;;;;89.30;32.60;;;;;;;-6.61;100.00;103064.99;106785;1285;58218;-76
2023/02/10 01:52:22;;;;;;;94.90;32.80;;;;;;;-6.66;100.00;103064.79;106764;1285;60125;-76
2023/02/10 01:54:55;;;;;;;97.60;35.90;;;;;;;-6.71;100.00;103055.95;106668;1286;73690;-76
2023/02/10 01:57:21;;;;;;;96.60;34.80;;;;;;;-6.76;100.00;103053.08;106772;1285;74187;-77
2023/02/10 01:59:47;;;;;;;93.30;33.30;;;;;;;-6.77;100.00;103048.26;106738;1285;58367;-76
2023/02/10 02:02:14;;;;;;;101.40;33.00;;;;;;;-6.77;100.00;103042.49;106763;1285;58240;-76
2023/02/10 02:04:50;;;;;;;117.10;36.00;;;;;;;-6.74;100.00;103044.42;106790;1286;58604;-77
2023/02/10 02:07:18;;;;;;;103.20;35.30;;;;;;;-6.70;100.00;103048.54;106664;1286;74639;-76
2023/02/10 02:09:44;;;;;;;111.80;35.80;;;;;;;-6.63;100.00;103048.36;106758;1286;73375;-76
2023/02/10 02:12:13;;;;;;;101.60;36.90;;;;;;;-6.55;100.00;103047.02;106657;1286;58250;-77
2023/02/10 02:14:52;;;;;;;104.30;35.90;;;;;;;-6.48;100.00;103045.71;106790;1285;62097;-76
2023/02/10 02:17:26;;;;;;;88.00;32.40;;;;;;;-6.43;100.00;103043.67;106391;1286;61062;-76
2023/02/10 02:23:07;;;;;;;85.20;33.00;;;;;;;-6.28;100.00;103046.73;106770;1286;73131;-76
2023/02/10 02:25:57;;;;;;;88.00;32.20;;;;;;;-6.23;100.00;103039.73;105909;1295;72586;-76
2023/02/10 02:28:32;;;;;;;91.80;33.10;;;;;;;-6.14;100.00;103043.95;106168;1292;62174;-77
2023/02/10 02:31:27;;;;;;;88.20;30.50;;;;;;;-6.05;100.00;103044.63;106166;1292;60295;-76
2023/02/10 02:34:01;;;;;;;92.90;32.00;;;;;;;-6.00;100.00;103042.24;106206;1292;73140;-76
2023/02/10 02:36:40;;;;;;;92.70;34.60;;;;;;;-5.94;100.00;103038.91;106053;1293;74119;-76
2023/02/10 02:39:06;;;;;;;95.10;34.60;;;;;;;-5.88;100.00;103042.57;106167;1292;73275;-76
2023/02/10 02:41:33;;;;;;;106.20;36.80;;;;;;;-5.83;100.00;103043.13;106172;1292;58311;-76
2023/02/10 02:44:01;;;;;;;89.90;32.90;;;;;;;-5.76;100.00;103038.02;106190;1292;61153;-76
2023/02/10 02:46:52;;;;;;;94.20;34.90;;;;;;;-5.73;100.00;103040.92;105936;1292;74695;-76
2023/02/10 02:49:41;;;;;;;115.20;37.60;;;;;;;-5.67;100.00;103038.52;106196;1292;74362;-76
2023/02/10 02:52:17;;;;;;;111.70;38.10;;;;;;;-5.64;100.00;103041.30;106059;1292;70198;-76
2023/02/10 02:55:01;;;;;;;95.60;35.50;;;;;;;-5.61;100.00;103043.19;106219;1292;61631;-76
2023/02/10 02:57:42;;;;;;;101.00;32.40;;;;;;;-5.58;100.00;103043.38;106188;1291;60356;-76
2023/02/10 03:00:19;;;;;;;99.10;32.80;;;;;;;-5.53;100.00;103040.23;106177;1292;74414;-76
2023/02/10 03:02:45;;;;;;;92.30;33.40;;;;;;;-5.49;100.00;103040.35;106468;1286;74797;-76
2023/02/10 03:05:18;;;;;;;103.50;37.40;;;;;;;-5.45;100.00;103038.58;106782;1285;71669;-76
2023/02/10 03:07:43;;;;;;;95.20;34.60;;;;;;;-5.47;100.00;103043.09;106399;1286;63059;-76
2023/02/10 03:10:09;;;;;;;92.30;35.00;;;;;;;-5.44;100.00;103044.67;106784;1286;58399;-76
2023/02/10 03:12:34;;;;;;;100.80;36.40;;;;;;;-5.40;100.00;103044.92;106467;1286;58462;-76
2023/02/10 03:14:59;;;;;;;100.00;35.80;;;;;;;-5.37;100.00;103042.09;106655;1286;58336;-76
2023/02/10 03:17:25;;;;;;;94.50;35.60;;;;;;;-5.36;100.00;103038.52;106822;1286;58563;-76
2023/02/10 03:19:50;;;;;;;93.60;33.90;;;;;;;-5.33;100.00;103037.48;106792;1286;58178;-77
2023/02/10 03:22:16;;;;;;;93.90;34.50;;;;;;;-5.33;100.00;103034.83;106800;1285;58331;-76
2023/02/10 03:24:41;;;;;;;101.40;35.80;;;;;;;-5.32;100.00;103039.68;106793;1285;58664;-77
2023/02/10 03:27:07;;;;;;;102.00;35.70;;;;;;;-5.31;100.00;103042.79;106763;1286;58284;-76
2023/02/10 03:29:32;;;;;;;96.40;35.90;;;;;;;-5.29;100.00;103043.16;106840;1286;58514;-76
2023/02/10 03:32:01;;;;;;;89.30;34.00;;;;;;;-5.26;100.00;103039.31;106463;1286;58438;-76
2023/02/10 03:34:27;;;;;;;101.90;35.80;;;;;;;-5.26;100.00;103036.11;106764;1285;74875;-76
2023/02/10 03:36:53;;;;;;;100.70;36.60;;;;;;;-5.25;100.00;103039.25;106757;1285;58249;-76
2023/02/10 03:39:18;;;;;;;96.30;35.40;;;;;;;-5.23;100.00;103040.71;106734;1289;58582;-76
2023/02/10 03:41:44;;;;;;;103.80;37.90;;;;;;;-5.21;100.00;103035.51;106783;1286;58229;-76
2023/02/10 03:44:09;;;;;;;111.70;38.80;;;;;;;-5.18;100.00;103039.53;106751;1286;58532;-76
2023/02/10 03:46:36;;;;;;;110.90;39.80;;;;;;;-5.20;100.00;103045.06;106755;1286;58320;-77
2023/02/10 03:49:03;;;;;;;107.10;36.70;;;;;;;-5.24;100.00;103042.89;106738;1285;62758;-76
2023/02/10 03:51:28;;;;;;;130.50;45.70;;;;;;;-5.25;100.00;103043.80;106759;1286;58183;-76
2023/02/10 03:53:54;;;;;;;132.00;44.70;;;;;;;-5.25;100.00;103038.73;106771;1285;58270;-76
2023/02/10 03:56:19;;;;;;;132.80;44.00;;;;;;;-5.28;100.00;103042.91;106670;1286;58433;-77
2023/02/10 03:58:45;;;;;;;131.50;44.50;;;;;;;-5.30;100.00;103044.30;106357;1285;58224;-76
2023/02/10 04:01:16;;;;;;;116.10;39.30;;;;;;;-5.36;100.00;103042.21;106783;1286;58239;-77
2023/02/10 04:03:42;;;;;;;111.80;37.90;;;;;;;-5.46;100.00;103039.65;106783;1285;74716;-76
2023/02/10 04:06:08;;;;;;;114.00;39.50;;;;;;;-5.50;100.00;103038.85;106811;1286;58600;-76
2023/02/10 04:08:34;;;;;;;102.00;39.00;;;;;;;-5.52;100.00;103037.38;106530;1286;58658;-76
2023/02/10 04:11:00;;;;;;;118.60;42.50;;;;;;;-5.52;100.00;103042.85;106808;1285;58150;-77
2023/02/10 04:13:25;;;;;;;123.80;41.60;;;;;;;-5.55;100.00;103043.36;106806;1286;58320;-76
2023/02/10 04:16:09;;;;;;;112.00;41.10;;;;;;;-5.57;100.00;103041.73;106797;1285;58356;-76
2023/02/10 04:18:35;;;;;;;107.60;38.20;;;;;;;-5.56;100.00;103042.73;106780;1285;74697;-76
2023/02/10 04:21:02;;;;;;;110.90;39.70;;;;;;;-5.53;100.00;103043.60;106450;1286;58612;-77
2023/02/10 04:23:29;;;;;;;108.40;38.80;;;;;;;-5.49;100.00;103044.09;106801;1285;60783;-76
2023/02/10 04:25:54;;;;;;;108.50;39.90;;;;;;;-5.49;100.00;103044.58;106798;1285;58561;-76
2023/02/10 04:28:20;;;;;;;114.60;38.70;;;;;;;-5.48;100.00;103047.48;106796;1285;58591;-77
2023/02/10 04:30:45;;;;;;;111.00;39.70;;;;;;;-5.47;100.00;103049.73;106782;1286;58305;-76
2023/02/10 04:33:11;;;;;;;109.50;39.60;;;;;;;-5.46;100.00;103048.45;106777;1285;58672;-76
2023/02/10 04:35:37;;;;;;;116.60;40.50;;;;;;;-5.46;100.00;103042.66;106857;1285;58548;-76
2023/02/10 04:38:05;;;;;;;120.30;43.80;;;;;;;-5.44;100.00;103043.75;106792;1285;72731;-76
2023/02/10 04:40:31;;;;;;;136.90;53.50;;;;;;;-5.42;100.00;103042.91;106474;1286;73718;-77
2023/02/10 04:42:56;;;;;;;112.30;41.00;;;;;;;-5.38;100.00;103049.02;106648;1286;58263;-76
2023/02/10 04:45:22;;;;;;;208.20;64.10;;;;;;;-5.37;100.00;103049.95;106787;1285;58305;-77
2023/02/10 04:47:47;;;;;;;133.80;45.90;;;;;;;-5.35;100.00;103046.36;106660;1288;58647;-76
2023/02/10 04:50:13;;;;;;;125.60;43.80;;;;;;;-5.32;100.00;103047.21;106854;1286;58450;-76
2023/02/10 04:52:38;;;;;;;160.50;54.00;;;;;;;-5.31;100.00;103053.13;106842;1286;58492;-76
2023/02/10 04:55:04;;;;;;;119.40;42.20;;;;;;;-5.31;100.00;103051.73;106671;1286;58233;-76
2023/02/10 04:57:29;;;;;;;111.30;40.50;;;;;;;-5.29;100.00;103045.63;106804;1285;59351;-78
2023/02/10 04:59:55;;;;;;;129.10;45.00;;;;;;;-5.26;100.00;103043.16;106803;1285;58237;-77
2023/02/10 05:02:20;;;;;;;114.00;41.30;;;;;;;-5.26;100.00;103046.81;106788;1285;58432;-77
2023/02/10 05:04:46;;;;;;;116.50;40.30;;;;;;;-5.27;100.00;103043.36;106445;1286;58673;-76
2023/02/10 05:07:11;;;;;;;115.40;40.60;;;;;;;-5.23;100.00;103043.70;106794;1285;58393;-76
2023/02/10 05:09:37;;;;;;;115.40;39.80;;;;;;;-5.19;100.00;103045.03;106546;1286;58290;-76
2023/02/10 05:12:03;;;;;;;161.40;52.90;;;;;;;-5.18;100.00;103045.64;106757;1285;58341;-76
2023/02/10 05:14:28;;;;;;;121.90;42.70;;;;;;;-5.15;100.00;103046.66;106852;1285;58254;-76
2023/02/10 05:16:54;;;;;;;120.70;40.80;;;;;;;-5.10;100.00;103047.45;106766;1285;60192;-76
2023/02/10 05:19:19;;;;;;;111.90;38.70;;;;;;;-5.06;100.00;103046.98;106783;1285;59058;-77
2023/02/10 05:21:45;;;;;;;114.60;40.10;;;;;;;-5.04;100.00;103048.08;106752;1285;58323;-76
2023/02/10 05:24:10;;;;;;;116.00;41.40;;;;;;;-4.99;100.00;103051.51;106770;1285;58346;-76
2023/02/10 05:26:36;;;;;;;116.40;41.50;;;;;;;-4.98;100.00;103055.77;106729;1286;58387;-76
2023/02/10 05:29:02;;;;;;;113.20;40.90;;;;;;;-4.96;100.00;103060.59;106713;1286;58874;-77
2023/02/10 05:31:28;;;;;;;106.50;37.20;;;;;;;-4.94;100.00;103060.96;106672;1285;74452;-76
2023/02/10 05:33:53;;;;;;;101.20;36.90;;;;;;;-4.89;100.00;103064.50;106726;1286;58344;-76
2023/02/10 05:36:20;;;;;;;100.10;36.40;;;;;;;-4.86;100.00;103068.52;106760;1285;58559;-76
2023/02/10 05:39:22;;;;;;;124.20;41.40;;;;;;;-4.82;100.00;103064.55;106782;1285;58507;-77
2023/02/10 05:41:31;;;;;;;113.80;39.30;;;;;;;-4.73;100.00;103063.70;106806;1286;72513;-77
2023/02/10 05:43:56;;;;;;;138.20;46.50;;;;;;;-4.66;100.00;103063.01;106860;1285;58529;-76
2023/02/10 05:46:22;;;;;;;116.50;39.90;;;;;;;-4.58;100.00;103061.64;106822;1285;58600;-77
2023/02/10 05:48:47;;;;;;;111.20;37.20;;;;;;;-4.53;100.00;103065.38;106857;1285;58317;-76
2023/02/10 05:51:13;;;;;;;112.50;38.70;;;;;;;-4.50;100.00;103066.57;106877;1285;58298;-76
2023/02/10 05:53:38;;;;;;;124.20;42.40;;;;;;;-4.42;100.00;103065.86;106815;1285;73827;-77
2023/02/10 05:56:04;;;;;;;119.60;40.00;;;;;;;-4.31;100.00;103064.64;106721;1285;59292;-77
2023/02/10 05:58:32;;;;;;;113.10;39.60;;;;;;;-4.22;100.00;103068.20;106780;1285;58580;-77
2023/02/10 06:00:58;;;;;;;113.30;37.40;;;;;;;-4.16;100.00;103065.75;106879;1285;58348;-76
2023/02/10 06:03:24;;;;;;;119.40;39.60;;;;;;;-4.10;100.00;103070.10;106844;1285;58420;-77
2023/02/10 06:05:50;;;;;;;116.40;37.80;;;;;;;-4.01;100.00;103062.27;106561;1286;58253;-77
2023/02/10 06:08:17;;;;;;;96.10;32.10;;;;;;;-3.91;100.00;103064.08;106586;1287;58269;-77
2023/02/10 06:10:42;;;;;;;103.90;34.50;;;;;;;-3.82;100.00;103065.02;106796;1285;59411;-76
2023/02/10 06:13:08;;;;;;;120.80;37.30;;;;;;;-3.74;100.00;103057.96;106868;1285;58624;-77
2023/02/10 06:15:33;;;;;;;138.20;43.20;;;;;;;-3.66;100.00;103061.10;106599;1286;58617;-76
2023/02/10 06:17:59;;;;;;;120.70;38.30;;;;;;;-3.60;100.00;103066.02;106643;1285;73890;-77
2023/02/10 06:20:25;;;;;;;123.90;39.80;;;;;;;-3.56;100.00;103066.08;106855;1285;58322;-77
2023/02/10 06:22:50;;;;;;;138.50;44.80;;;;;;;-3.55;100.00;103061.61;106469;1286;59233;-77
2023/02/10 06:25:16;;;;;;;111.80;39.20;;;;;;;-3.50;100.00;103057.41;106874;1285;58294;-76
2023/02/10 06:27:41;;;;;;;120.70;38.60;;;;;;;-3.43;100.00;103059.55;106895;1285;58349;-77
2023/02/10 06:30:08;;;;;;;123.80;40.50;;;;;;;-3.31;100.00;103059.95;106822;1286;61479;-77
2023/02/10 06:32:33;;;;;;;133.90;42.50;;;;;;;-3.23;100.00;103060.76;106857;1285;58345;-77
2023/02/10 06:34:59;;;;;;;120.30;39.60;;;;;;;-3.15;100.00;103060.73;106879;1285;58429;-77
2023/02/10 06:37:24;;;;;;;120.60;39.60;;;;;;;-3.10;100.00;103058.64;106844;1286;58400;-77
2023/02/10 06:39:51;;;;;;;126.10;42.30;;;;;;;-3.03;100.00;103054.26;106798;1285;58521;-77
2023/02/10 06:42:16;;;;;;;110.10;35.90;;;;;;;-2.92;100.00;103058.08;106812;1285;58293;-77
2023/02/10 06:44:42;;;;;;;116.70;36.50;;;;;;;-2.86;100.00;103060.77;106632;1286;58413;-76
2023/02/10 06:47:08;;;;;;;100.70;33.80;;;;;;;-2.77;100.00;103055.03;106762;1285;58290;-77
2023/02/10 06:49:33;;;;;;;100.60;31.80;;;;;;;-2.70;100.00;103054.21;106463;1286;58434;-77
2023/02/10 06:51:59;;;;;;;97.30;32.30;;;;;;;-2.66;100.00;103052.68;106819;1285;58579;-77
2023/02/10 06:54:24;;;;;;;101.70;34.20;;;;;;;-2.57;100.00;103051.11;106845;1285;58239;-77
2023/02/10 06:56:50;;;;;;;107.20;35.50;;;;;;;-2.49;100.00;103050.16;106492;1286;58716;-77
2023/02/10 06:59:16;;;;;;;104.40;33.40;;;;;;;-2.35;100.00;103053.66;106809;1285;72195;-76
2023/02/10 07:01:42;;;;;;;116.90;34.10;;;;;;;-2.22;100.00;103051.53;106441;1286;58262;-76
2023/02/10 07:04:08;;;;;;;111.60;36.30;;;;;;;-2.11;100.00;103048.41;106830;1285;58675;-77
2023/02/10 07:06:34;;;;;;;106.20;33.90;;;;;;;-2.00;100.00;103045.14;106620;1286;58273;-77
2023/02/10 07:08:59;;;;;;;82.80;28.40;;;;;;;-1.91;100.00;103041.23;106470;1286;58306;-78
2023/02/10 07:11:25;;;;;;;77.00;26.70;;;;;;;-1.80;100.00;103038.98;106776;1285;58729;-76
2023/02/10 11:09:55;;;;;;;24.40;11.00;;;;;;;2.64;86.10;102819.62;103909;1282;616236;-75
2023/02/10 11:12:37;;;;;;;36.50;12.70;;;;;;;2.62;86.24;102816.95;104130;1282;60288;-75
2023/02/10 11:15:30;;;;;;;36.80;13.30;;;;;;;2.72;86.04;102809.38;104259;1282;61435;-76
2023/02/10 11:17:57;;;;;;;35.60;14.00;;;;;;;2.78;85.82;102802.13;104203;1282;73594;-76
2023/02/10 11:20:27;;;;;;;42.70;14.40;;;;;;;2.68;85.50;102797.92;104297;1280;74886;-75
2023/02/10 11:23:00;;;;;;;36.70;12.60;;;;;;;2.53;84.57;102792.86;103962;1281;360207;-75
2023/02/10 11:25:31;;;;;;;36.10;13.50;;;;;;;2.38;84.23;102794.68;104383;1277;60402;-76
2023/02/10 11:27:58;;;;;;;38.20;12.00;;;;;;;2.24;84.37;102795.20;104453;1279;61336;-76
2023/02/10 11:30:28;;;;;;;38.20;14.10;;;;;;;2.05;84.70;102791.17;104466;1279;73330;-76
2023/02/10 11:32:56;;;;;;;47.40;15.70;;;;;;;1.98;85.40;102787.91;104369;1276;73962;-76
2023/02/10 11:35:22;;;;;;;41.50;13.40;;;;;;;1.92;86.05;102785.33;103989;1285;73929;-75
2023/02/10 11:38:03;;;;;;;37.20;13.10;;;;;;;1.83;86.04;102779.52;104569;1275;60706;-76
2023/02/10 11:40:46;;;;;;;34.00;12.70;;;;;;;1.73;86.43;102788.73;104470;1276;60516;-78
2023/02/10 11:43:13;;;;;;;33.50;11.10;;;;;;;1.74;87.54;102789.15;104043;1282;74175;-76
2023/02/10 11:45:39;;;;;;;31.40;11.70;;;;;;;1.82;87.11;102788.27;103651;1283;74758;-76
2023/02/10 11:48:16;;;;;;;32.40;11.80;;;;;;;1.75;86.62;102785.01;104236;1287;60386;-76
2023/02/10 11:50:42;;;;;;;36.00;12.40;;;;;;;1.72;86.94;102781.38;104520;1277;60236;-77
2023/02/10 11:53:30;;;;;;;37.10;12.20;;;;;;;1.71;87.41;102777.15;104063;1282;60383;-77
2023/02/10 11:56:21;;;;;;;32.00;10.80;;;;;;;1.75;88.76;102777.26;104303;1282;74663;-76
2023/02/10 11:59:03;;;;;;;33.10;11.50;;;;;;;1.78;88.51;102775.20;104485;1280;73672;-77
2023/02/10 12:01:40;;;;;;;36.30;11.50;;;;;;;1.89;89.83;102781.04;104344;1281;73461;-77
2023/02/10 12:04:47;;;;;;;29.10;11.20;;;;;;;2.09;88.94;102778.75;102887;1289;600987;-76
2023/02/10 12:07:30;;;;;;;38.40;11.70;;;;;;;2.15;88.49;102776.33;103111;1290;60787;-76
2023/02/10 12:10:02;;;;;;;27.60;10.60;;;;;;;2.25;88.50;102773.83;102893;1289;60566;-76
2023/02/10 12:12:42;;;;;;;36.70;11.60;;;;;;;2.24;87.30;102774.79;103098;1295;73486;-77
2023/02/10 12:15:43;;;;;;;37.30;12.40;;;;;;;2.26;87.76;102777.21;102653;1298;72456;-77
2023/02/10 12:18:33;;;;;;;31.30;11.80;;;;;;;2.21;86.67;102778.08;103103;1289;277937;-77
2023/02/10 12:21:17;;;;;;;38.80;14.50;;;;;;;2.23;87.63;102779.61;103262;1287;60286;-77
2023/02/10 12:24:16;;;;;;;28.50;11.20;;;;;;;2.31;87.72;102780.02;103295;1288;60794;-76
2023/02/10 12:27:04;;;;;;;30.20;11.50;;;;;;;2.24;86.73;102777.05;103039;1290;71965;-76
2023/02/10 12:30:00;;;;;;;36.90;12.70;;;;;;;2.14;86.84;102776.62;103002;1289;73910;-76
2023/02/10 12:36:05;;;;;;;24.90;9.50;;;;;;;2.12;86.43;102774.73;102822;1289;601068;-77
2023/02/10 12:38:42;;;;;;;23.80;10.00;;;;;;;1.98;86.60;102776.27;102961;1292;60775;-76
2023/02/10 12:41:42;;;;;;;27.70;9.80;;;;;;;1.98;87.14;102774.86;102610;1295;61868;-75
2023/02/10 12:44:29;;;;;;;32.00;11.20;;;;;;;2.00;86.87;102764.75;102928;1295;73950;-75
2023/02/10 12:47:10;;;;;;;28.70;11.20;;;;;;;1.92;86.96;102766.56;102605;1292;74130;-75
2023/02/10 12:49:54;;;;;;;31.40;11.30;;;;;;;1.85;87.25;102767.38;99212;1289;5391154;-75
2023/02/10 12:56:14;;;;;;;25.90;10.50;;;;;;;1.55;87.88;102759.63;102614;1291;601779;-77
2023/02/10 12:58:45;;;;;;;31.20;11.80;;;;;;;1.44;87.77;102759.99;103089;1291;60411;-76
2023/02/10 13:01:26;;;;;;;26.10;10.40;;;;;;;1.31;88.38;102755.51;102999;1291;61567;-76
2023/02/10 13:04:02;;;;;;;30.10;11.50;;;;;;;1.17;88.16;102748.96;103029;1293;73324;-76
2023/02/10 13:06:44;;;;;;;32.10;11.20;;;;;;;1.00;88.77;102749.61;102982;1288;74774;-76
2023/02/10 13:09:52;;;;;;;34.70;12.30;;;;;;;0.89;90.37;102752.23;99211;1286;5387899;-76
2023/02/10 13:12:32;;;;;;;31.50;12.30;;;;;;;0.81;90.02;102755.67;103417;1286;60913;-76
2023/02/10 13:15:06;;;;;;;28.60;12.50;;;;;;;0.65;91.12;102769.32;103277;1286;61689;-76
2023/02/10 13:17:44;;;;;;;26.50;10.50;;;;;;;0.55;91.99;102766.84;106761;1285;73726;-77
2023/02/10 13:20:24;;;;;;;27.60;11.60;;;;;;;0.49;92.66;102767.39;106740;1286;74382;-77
2023/02/10 13:23:32;;;;;;;30.00;12.10;;;;;;;0.44;93.45;102765.95;106703;1286;72381;-77
2023/02/10 13:26:13;;;;;;;28.30;11.40;;;;;;;0.34;93.78;102763.62;106177;1291;60164;-78
2023/02/10 13:28:56;;;;;;;30.90;12.20;;;;;;;0.29;94.66;102759.19;106225;1291;61095;-77
2023/02/10 13:32:15;;;;;;;35.30;12.50;;;;;;;0.25;95.55;102757.89;106231;1291;73664;-77
2023/02/10 13:34:51;;;;;;;30.40;13.60;;;;;;;0.21;96.44;102764.45;105748;1297;73416;-78
2023/02/10 13:37:16;;;;;;;38.60;12.30;;;;;;;0.17;97.22;102768.65;105644;1298;72342;-77
2023/02/10 13:39:55;;;;;;;32.40;13.10;;;;;;;0.16;97.94;102766.17;105756;1297;58166;-77
2023/02/10 13:42:20;;;;;;;40.80;13.10;;;;;;;0.13;98.37;102762.65;105793;1297;61034;-77
2023/02/10 13:45:15;;;;;;;34.40;13.50;;;;;;;0.10;98.85;102755.86;105758;1297;58182;-76
2023/02/10 13:47:48;;;;;;;40.90;14.90;;;;;;;0.12;99.97;102760.44;105771;1297;73365;-77
2023/02/10 13:50:14;;;;;;;35.90;13.80;;;;;;;0.18;100.00;102760.46;105763;1297;73467;-77
2023/02/10 13:53:07;;;;;;;37.20;13.90;;;;;;;0.24;100.00;102762.09;105780;1297;58172;-77
2023/02/10 13:55:35;;;;;;;36.50;14.30;;;;;;;0.24;100.00;102761.21;105762;1297;59094;-77
2023/02/10 13:58:07;;;;;;;33.30;14.20;;;;;;;0.22;100.00;102761.88;106027;1294;73857;-77
2023/02/10 14:00:46;;;;;;;34.10;14.10;;;;;;;0.21;100.00;102765.71;106068;1294;74320;-76
2023/02/10 14:03:11;;;;;;;33.20;13.60;;;;;;;0.19;100.00;102764.05;106025;1294;73299;-76
2023/02/10 14:05:50;;;;;;;38.90;14.90;;;;;;;0.15;100.00;102758.98;105996;1294;58260;-76
2023/02/10 14:08:29;;;;;;;38.20;14.60;;;;;;;0.04;100.00;102755.17;105965;1294;59991;-77
2023/02/10 14:11:05;;;;;;;42.20;14.80;;;;;;;-0.05;100.00;102751.19;106244;1287;73422;-76
2023/02/10 14:13:33;;;;;;;41.00;14.40;;;;;;;-0.17;100.00;102749.42;106446;1289;73314;-76
2023/02/10 14:16:15;;;;;;;37.70;14.90;;;;;;;-0.25;100.00;102751.95;106417;1289;73701;-76
2023/02/10 14:18:45;;;;;;;42.30;14.70;;;;;;;-0.33;100.00;102754.04;106427;1288;60756;-76
2023/02/10 14:21:18;;;;;;;38.40;15.40;;;;;;;-0.42;100.00;102753.58;106483;1288;61241;-76
2023/02/10 14:23:51;;;;;;;40.30;16.00;;;;;;;-0.51;100.00;102749.46;106432;1288;73892;-76
2023/02/10 14:26:33;;;;;;;40.70;15.20;;;;;;;-0.61;100.00;102745.20;106435;1289;73794;-76
2023/02/10 14:28:59;;;;;;;37.60;15.20;;;;;;;-0.73;100.00;102741.94;106425;1288;73611;-77
2023/02/10 14:31:29;;;;;;;43.40;16.90;;;;;;;-0.81;100.00;102738.24;106447;1289;61692;-76
2023/02/10 14:34:00;;;;;;;44.10;18.00;;;;;;;-0.90;100.00;102739.38;106455;1289;61126;-76
2023/02/10 14:36:28;;;;;;;52.20;19.30;;;;;;;-1.00;100.00;102736.48;106477;1288;73779;-76
2023/02/10 14:38:56;;;;;;;49.40;17.40;;;;;;;-1.10;100.00;102738.84;106459;1288;73650;-76
2023/02/10 14:41:27;;;;;;;46.80;18.10;;;;;;;-1.21;100.00;102735.70;106438;1288;72655;-76
2023/02/10 14:43:54;;;;;;;47.80;18.90;;;;;;;-1.34;100.00;102733.42;106474;1288;61865;-76
2023/02/10 14:46:29;;;;;;;40.80;18.10;;;;;;;-1.45;100.00;102736.06;106310;1290;58139;-77
2023/02/10 14:49:09;;;;;;;55.20;19.90;;;;;;;-1.57;100.00;102736.89;106416;1288;72980;-76
2023/02/10 14:51:40;;;;;;;78.90;26.70;;;;;;;-1.70;100.00;102737.48;106492;1289;74510;-76
2023/02/10 14:54:24;;;;;;;70.20;25.80;;;;;;;-1.84;100.00;102738.55;106262;1289;72467;-76
2023/02/10 14:56:58;;;;;;;63.90;23.20;;;;;;;-1.98;100.00;102739.00;106321;1289;61608;-76
2023/02/10 14:59:29;;;;;;;62.70;21.90;;;;;;;-2.10;100.00;102737.20;106348;1289;61067;-75
2023/02/10 15:01:57;;;;;;;59.30;22.20;;;;;;;-2.23;100.00;102734.86;106239;1289;74056;-75
2023/02/10 15:04:26;;;;;;;73.30;25.70;;;;;;;-2.32;100.00;102736.41;106376;1289;74248;-76
2023/02/10 15:06:55;;;;;;;80.60;27.50;;;;;;;-2.44;100.00;102731.07;106324;1289;72808;-76
2023/02/10 15:09:33;;;;;;;76.00;24.10;;;;;;;-2.56;100.00;102733.44;106346;1289;62780;-76
2023/02/10 15:12:17;;;;;;;58.70;22.60;;;;;;;-2.65;100.00;102737.81;106359;1290;60163;-75
2023/02/10 15:15:09;;;;;;;68.70;22.60;;;;;;;-2.75;100.00;102735.08;106318;1289;73153;-75
2023/02/10 15:17:40;;;;;;;77.70;25.60;;;;;;;-2.86;100.00;102737.02;106317;1289;74373;-75